createdAt,value
2022-10-20T00:01:24.817Z,100038.88
2022-10-20T00:03:54.983Z,100025.69
2022-10-20T00:06:25.393Z,100024.22
2022-10-20T00:08:53.795Z,100030.47
2022-10-20T00:11:22.411Z,100024.97
2022-10-20T00:13:51.467Z,100007.28
2022-10-20T00:16:19.074Z,100018.16
2022-10-20T00:18:46.382Z,100013.88
2022-10-20T00:21:18.702Z,100015.31
2022-10-20T00:23:46.114Z,100003.38
2022-10-20T00:26:16.271Z,100012.41
2022-10-20T00:28:45.366Z,100017.78
2022-10-20T00:31:13.237Z,100013.97
2022-10-20T00:33:40.960Z,100009.50
2022-10-20T00:36:16.844Z,100002.16
2022-10-20T00:38:45.227Z,100002.16
2022-10-20T00:41:14.640Z,100014.59
2022-10-20T00:43:55.708Z,100015.06
2022-10-20T00:46:25.715Z,100002.25
2022-10-20T00:48:56.523Z,100006.78
2022-10-20T00:51:30.349Z,99995.66
2022-10-20T00:54:12.072Z,100006.16
2022-10-20T00:56:42.660Z,99997.59
2022-10-20T00:59:12.153Z,99991.13
2022-10-20T01:01:40.248Z,100000.91
2022-10-20T01:04:07.820Z,99990.16
2022-10-20T01:06:35.456Z,100001.75
2022-10-20T01:09:05.902Z,100007.72
2022-10-20T01:12:08.207Z,100000.41
2022-10-20T01:14:44.102Z,100008.34
2022-10-20T01:17:41.370Z,99998.44
2022-10-20T01:20:46.379Z,99989.53
2022-10-20T01:23:32.562Z,99991.22
2022-10-20T01:26:27.652Z,99991.38
2022-10-20T01:29:00.931Z,99988.69
2022-10-20T01:31:45.007Z,99985.28
2022-10-20T01:34:27.808Z,99977.34
2022-10-20T01:36:59.933Z,99990.66
2022-10-20T01:39:47.389Z,99986.25
2022-10-20T01:42:19.781Z,99983.81
2022-10-20T01:44:48.372Z,99973.09
2022-10-20T01:47:16.730Z,99985.38
2022-10-20T01:49:46.407Z,99973.78
2022-10-20T01:52:14.304Z,99974.66
2022-10-20T01:54:41.627Z,99972.81
2022-10-20T01:57:11.342Z,99972.81
2022-10-20T02:00:03.832Z,99978.19
2022-10-20T02:02:42.049Z,99970.97
2022-10-20T02:05:11.802Z,99969.03
2022-10-20T02:07:39.916Z,99983.31
2022-10-20T02:10:20.374Z,99976.94
2022-10-20T02:12:51.383Z,99978.78
2022-10-20T02:15:23.680Z,99978.66
2022-10-20T02:17:59.360Z,99976.09
2022-10-20T02:20:29.702Z,99980.63
2022-10-20T02:23:00.984Z,99979.03
2022-10-20T02:25:29.928Z,99979.16
2022-10-20T02:30:31.477Z,99977.34
2022-10-20T02:32:59.143Z,99974.78
2022-10-20T02:35:30.291Z,99971.25
2022-10-20T02:37:58.368Z,99966.72
2022-10-20T02:40:26.445Z,99971.25
2022-10-20T02:42:54.104Z,99970.41
2022-10-20T02:45:21.507Z,99972.19
2022-10-20T02:47:48.814Z,99970.41
2022-10-20T02:50:17.244Z,99961.59
2022-10-20T02:52:46.164Z,99949.63
2022-10-20T02:55:13.770Z,99951.38
2022-10-20T02:57:41.151Z,99946.00
2022-10-20T03:00:09.325Z,99947.69
2022-10-20T03:02:36.619Z,99955.75
2022-10-20T03:05:04.273Z,99951.38
2022-10-20T03:07:31.835Z,99946.00
2022-10-20T03:09:59.243Z,99952.22
2022-10-20T03:12:28.909Z,99954.06
2022-10-20T03:14:58.832Z,99948.91
2022-10-20T03:17:28.736Z,99944.25
2022-10-20T03:19:56.097Z,99951.59
2022-10-20T03:22:23.656Z,99955.75
2022-10-20T03:24:51.518Z,99940.72
2022-10-20T03:27:18.946Z,99942.56
2022-10-20T03:29:46.501Z,99930.13
2022-10-20T03:32:20.140Z,99931.22
2022-10-20T03:34:47.490Z,99924.16
2022-10-20T03:37:14.845Z,99926.69
2022-10-20T03:39:42.682Z,99934.75
2022-10-20T03:42:10.033Z,99925.84
2022-10-20T03:44:38.752Z,99932.34
2022-10-20T03:47:06.121Z,99920.75
2022-10-20T03:49:37.456Z,99919.88
2022-10-20T03:52:05.130Z,99921.84
2022-10-20T03:54:35.832Z,99908.41
2022-10-20T03:57:07.830Z,99910.25
2022-10-20T03:59:35.451Z,99912.94
2022-10-20T04:02:03.092Z,99906.72
2022-10-20T04:04:30.614Z,99905.97
2022-10-20T04:07:16.567Z,99902.44
2022-10-20T04:09:43.852Z,99904.13
2022-10-20T04:12:11.316Z,99904.97
2022-10-20T04:14:39.369Z,99891.69
2022-10-20T04:17:06.753Z,99895.22
2022-10-20T04:19:34.496Z,99896.06
2022-10-20T04:22:01.763Z,99895.00
2022-10-20T04:24:29.983Z,99888.78
2022-10-20T04:26:57.551Z,99884.09
2022-10-20T04:29:25.164Z,99876.91
2022-10-20T04:31:52.670Z,99882.16
2022-10-20T04:34:20.051Z,99888.25
2022-10-20T04:36:50.440Z,99891.69
2022-10-20T04:39:17.960Z,99904.97
2022-10-20T04:41:45.333Z,99897.75
2022-10-20T04:44:12.645Z,99900.44
2022-10-20T04:46:40.219Z,99909.84
2022-10-20T04:49:08.496Z,99905.94
2022-10-20T04:51:37.540Z,99909.34
2022-10-20T04:56:37.416Z,99908.56
2022-10-20T04:59:08.416Z,99911.84
2022-10-20T05:01:39.947Z,99912.34
2022-10-20T05:04:07.598Z,99912.94
2022-10-20T05:06:36.021Z,99921.47
2022-10-20T05:09:06.674Z,99912.16
2022-10-20T05:11:37.072Z,99910.81
2022-10-20T05:14:04.911Z,99914.44
2022-10-20T05:16:32.219Z,99923.81
2022-10-20T05:18:59.967Z,99909.00
2022-10-20T05:21:29.743Z,99907.28
2022-10-20T05:23:59.622Z,99912.53
2022-10-20T05:26:28.600Z,99909.59
2022-10-20T05:28:55.890Z,99916.53
2022-10-20T05:31:23.987Z,99914.84
2022-10-20T05:33:54.707Z,99922.16
2022-10-20T05:36:24.662Z,99918.91
2022-10-20T05:38:53.906Z,99923.56
2022-10-20T05:41:24.595Z,99922.94
2022-10-20T05:44:00.104Z,99922.09
2022-10-20T05:46:34.546Z,99930.16
2022-10-20T05:49:03.732Z,99928.59
2022-10-20T05:51:34.901Z,99927.47
2022-10-20T05:54:03.713Z,99930.50
2022-10-20T05:56:31.953Z,99929.38
2022-10-20T05:58:59.192Z,99932.06
2022-10-20T06:01:47.754Z,99941.66
2022-10-20T06:04:23.374Z,99943.84
2022-10-20T06:06:54.363Z,99949.16
2022-10-20T06:09:24.595Z,99955.91
2022-10-20T06:11:54.506Z,99951.41
2022-10-20T06:14:23.753Z,99949.97
2022-10-20T06:16:52.493Z,99965.72
2022-10-20T06:19:20.752Z,99976.25
2022-10-20T06:21:50.273Z,99975.16
2022-10-20T06:24:18.773Z,99983.97
2022-10-20T06:26:49.284Z,99979.44
2022-10-20T06:29:19.374Z,99990.22
2022-10-20T06:31:48.870Z,99996.53
2022-10-20T06:34:21.252Z,99993.84
2022-10-20T06:36:49.579Z,100000.38
2022-10-20T06:39:19.577Z,99997.09
2022-10-20T06:41:50.314Z,99991.22
2022-10-20T06:44:24.696Z,99997.31
2022-10-20T06:46:53.989Z,100009.09
2022-10-20T06:49:24.159Z,100005.78
2022-10-20T06:51:51.513Z,100017.09
2022-10-20T06:54:21.931Z,100016.47
2022-10-20T06:57:03.823Z,100029.38
2022-10-20T06:59:31.374Z,100029.72
2022-10-20T07:03:02.556Z,100049.88
2022-10-20T07:05:35.440Z,100054.75
2022-10-20T07:08:03.496Z,100059.47
2022-10-20T07:10:34.087Z,100059.72
2022-10-20T07:13:02.365Z,100063.59
2022-10-20T07:38:48.794Z,100077.06
2022-10-20T07:41:16.092Z,100072.91
2022-10-20T07:43:43.764Z,100067.75
2022-10-20T07:46:14.949Z,100073.22
2022-10-20T07:48:42.360Z,100069.78
2022-10-20T07:51:30.218Z,100058.63
2022-10-20T07:54:03.437Z,100062.09
2022-10-20T07:56:40.959Z,100067.44
2022-10-20T07:59:09.686Z,100071.94
2022-10-20T08:01:38.762Z,100069.78
2022-10-20T08:04:09.074Z,100072.97
2022-10-20T08:06:41.400Z,100068.28
2022-10-20T08:09:09.963Z,100072.91
2022-10-20T08:11:39.394Z,100081.44
2022-10-20T08:14:08.200Z,100067.53
2022-10-20T08:16:43.251Z,100077.28
2022-10-20T08:19:16.732Z,100070.22
2022-10-20T08:21:44.240Z,100081.66
2022-10-20T08:24:11.707Z,100073.50
2022-10-20T08:26:39.875Z,100085.81
2022-10-20T08:29:09.781Z,100075.97
2022-10-20T08:31:39.202Z,100078.97
2022-10-20T08:34:06.417Z,100070.50
2022-10-20T08:36:34.061Z,100080.34
2022-10-20T08:39:05.044Z,100080.34
2022-10-20T08:42:02.522Z,100088.34
2022-10-20T08:44:28.375Z,100091.56
2022-10-20T08:46:56.189Z,100087.06
2022-10-20T08:49:26.429Z,100091.75
2022-10-20T08:51:55.154Z,100082.56
2022-10-20T08:54:22.546Z,100090.59
2022-10-20T08:56:50.017Z,100082.00
2022-10-20T08:59:30.379Z,100086.22
2022-10-20T09:01:58.080Z,100082.25
2022-10-20T09:04:40.739Z,100090.78
2022-10-20T09:07:23.727Z,100087.88
2022-10-20T09:09:51.425Z,100091.22
2022-10-20T09:12:20.270Z,100098.47
2022-10-20T09:14:47.635Z,100094.38
2022-10-20T09:17:17.238Z,100087.69
2022-10-20T09:19:52.755Z,100091.88
2022-10-20T09:22:22.325Z,100089.59
2022-10-20T09:24:59.322Z,100093.97
2022-10-20T09:27:34.603Z,100089.19
2022-10-20T09:33:28.442Z,100106.69
2022-10-20T09:36:11.949Z,100103.50
2022-10-20T09:38:47.234Z,100094.31
2022-10-20T09:41:21.330Z,100096.28
2022-10-20T09:43:58.260Z,100099.59
2022-10-20T09:46:35.081Z,100104.59
2022-10-20T09:49:21.121Z,100099.25
2022-10-20T09:51:48.576Z,100114.06
2022-10-20T09:54:21.335Z,100104.66
2022-10-20T09:56:52.928Z,100107.09
2022-10-20T09:59:32.526Z,100122.44
2022-10-20T10:02:02.288Z,100116.22
2022-10-20T10:04:43.301Z,100126.06
2022-10-20T10:07:22.757Z,100121.66
2022-10-20T10:10:08.664Z,100123.72
2022-10-20T10:12:36.611Z,100124.06
2022-10-20T10:15:28.010Z,100128.31
2022-10-20T10:17:56.830Z,100128.22
2022-10-20T10:20:38.514Z,100132.69
2022-10-20T10:23:25.146Z,100139.25
2022-10-20T10:25:53.405Z,100127.16
2022-10-20T10:28:29.529Z,100130.03
2022-10-20T10:31:20.946Z,100143.22
2022-10-20T10:33:51.347Z,100149.88
2022-10-20T10:36:24.399Z,100150.38
2022-10-20T10:38:54.836Z,100151.09
2022-10-20T10:41:55.402Z,100144.06
2022-10-20T10:45:46.698Z,100141.91
2022-10-20T10:48:42.388Z,100149.72
2022-10-20T10:51:28.049Z,100166.75
2022-10-20T10:53:59.037Z,100147.47
2022-10-20T10:56:34.270Z,100151.09
2022-10-20T10:59:06.492Z,100157.84
2022-10-20T11:01:53.293Z,100145.72
2022-10-20T11:20:10.981Z,100165.09
2022-10-20T11:22:57.433Z,100168.50
2022-10-20T11:25:38.637Z,100179.69
2022-10-20T11:28:32.700Z,100162.44
2022-10-20T11:31:00.688Z,100164.84
2022-10-20T11:33:44.734Z,100168.91
2022-10-20T11:36:19.761Z,100168.72
2022-10-20T11:38:55.245Z,100175.88
2022-10-20T11:44:25.690Z,100178.75
2022-10-20T11:47:06.111Z,100184.31
2022-10-20T11:49:34.032Z,100191.28
2022-10-20T11:52:23.505Z,100182.91
2022-10-20T11:55:14.762Z,100200.47
2022-10-20T11:57:42.616Z,100181.41
2022-10-20T12:03:08.643Z,100182.06
2022-10-20T12:05:47.887Z,100190.75
2022-10-20T12:08:37.514Z,100189.78
2022-10-20T12:11:23.788Z,100186.25
2022-10-20T12:14:03.098Z,100186.66
2022-10-20T12:16:54.580Z,100179.31
2022-10-20T12:19:34.420Z,100180.81
2022-10-20T12:22:06.906Z,100183.28
2022-10-20T12:24:38.230Z,100187.88
2022-10-20T12:30:39.172Z,100201.59
2022-10-20T12:33:38.368Z,100205.50
2022-10-20T12:36:18.034Z,100203.88
2022-10-20T12:39:27.807Z,100209.22
2022-10-20T12:41:59.744Z,100202.94
2022-10-20T12:44:29.892Z,100218.31
2022-10-20T12:47:06.958Z,100208.28
2022-10-20T12:49:40.723Z,100232.13
2022-10-20T12:52:36.901Z,100218.56
2022-10-20T12:55:26.004Z,100224.59
2022-10-20T12:58:24.108Z,100223.34
2022-10-20T13:10:00.416Z,100254.91
2022-10-20T13:12:40.045Z,100253.03
2022-10-20T13:15:13.716Z,100252.91
2022-10-20T13:18:01.991Z,100243.94
2022-10-20T13:21:06.789Z,100256.34
2022-10-20T13:24:06.103Z,100267.78
2022-10-20T13:27:09.537Z,100264.94
2022-10-20T13:30:00.317Z,100269.13
2022-10-20T13:33:02.042Z,100266.66
2022-10-20T13:35:43.070Z,100275.03
2022-10-20T13:38:17.756Z,100276.94
2022-10-20T13:40:50.691Z,100277.16
2022-10-20T13:43:58.265Z,100284.59
2022-10-20T13:46:33.415Z,100290.59
2022-10-20T13:49:17.431Z,100283.72
2022-10-20T13:51:52.451Z,100292.41
2022-10-20T13:54:36.339Z,100289.72
2022-10-20T13:57:08.932Z,100300.03
2022-10-20T13:59:55.586Z,100311.28
2022-10-20T14:02:33.814Z,100300.31
2022-10-20T14:05:11.892Z,100316.94
2022-10-20T14:07:42.431Z,100303.34
2022-10-20T14:10:33.114Z,100325.81
2022-10-20T14:13:01.742Z,100337.06
2022-10-20T14:15:33.337Z,100336.94
2022-10-20T14:18:07.423Z,100345.09
